createdAt,value
2022-08-25T00:01:49.779Z,21.21
2022-08-25T00:04:18.332Z,21.29
2022-08-25T00:06:51.140Z,21.26
2022-08-25T00:09:21.657Z,21.26
2022-08-25T00:11:49.335Z,21.17
2022-08-25T00:14:18.263Z,21.22
2022-08-25T00:16:45.812Z,21.12
2022-08-25T00:19:15.582Z,21.10
2022-08-25T00:21:46.572Z,21.08
2022-08-25T00:24:15.937Z,21.04
2022-08-25T00:26:53.789Z,21.05
2022-08-25T00:29:22.146Z,21.00
2022-08-25T00:31:49.323Z,21.07
2022-08-25T00:34:19.312Z,20.98
2022-08-25T00:36:48.901Z,20.97
2022-08-25T00:39:22.223Z,20.87
2022-08-25T00:41:54.139Z,20.88
2022-08-25T00:44:24.747Z,20.82
2022-08-25T00:46:56.489Z,20.77
2022-08-25T00:49:38.408Z,20.80
2022-08-25T00:52:09.464Z,20.91
2022-08-25T00:54:40.596Z,20.92
2022-08-25T00:57:08.918Z,20.92
2022-08-25T00:59:42.010Z,20.87
2022-08-25T01:02:09.726Z,20.75
2022-08-25T01:04:48.873Z,20.83
2022-08-25T01:07:20.180Z,20.81
2022-08-25T01:09:52.124Z,20.78
2022-08-25T01:12:22.643Z,20.73
2022-08-25T01:14:53.943Z,20.72
2022-08-25T01:17:24.067Z,20.73
2022-08-25T01:19:51.089Z,20.69
2022-08-25T01:22:18.532Z,20.67
2022-08-25T01:24:50.015Z,20.66
2022-08-25T01:27:17.221Z,20.57
2022-08-25T01:29:50.533Z,20.54
2022-08-25T01:32:21.339Z,20.65
2022-08-25T01:34:51.904Z,20.65
2022-08-25T01:37:19.667Z,20.56
2022-08-25T01:39:49.866Z,20.61
2022-08-25T01:42:28.371Z,20.57
2022-08-25T01:45:01.665Z,20.60
2022-08-25T01:47:29.820Z,20.65
2022-08-25T01:50:00.613Z,20.62
2022-08-25T01:52:37.314Z,20.63
2022-08-25T01:55:05.214Z,20.60
2022-08-25T01:57:37.903Z,20.66
2022-08-25T02:00:06.582Z,20.58
2022-08-25T02:02:42.023Z,20.64
2022-08-25T02:05:14.178Z,20.61
2022-08-25T02:07:44.305Z,20.54
2022-08-25T02:10:12.881Z,20.64
2022-08-25T02:12:40.719Z,20.54
2022-08-25T02:15:08.766Z,20.46
2022-08-25T02:17:36.005Z,20.53
2022-08-25T02:20:04.729Z,20.48
2022-08-25T02:22:34.666Z,20.56
2022-08-25T02:25:02.042Z,21.15
2022-08-25T02:27:29.093Z,22.20
2022-08-25T02:29:59.954Z,22.00
2022-08-25T02:32:27.362Z,22.22
2022-08-25T02:34:54.795Z,22.26
2022-08-25T02:37:27.428Z,22.35
2022-08-25T02:39:56.859Z,22.30
2022-08-25T02:42:27.573Z,22.03
2022-08-25T02:45:01.143Z,22.26
2022-08-25T02:47:31.515Z,22.35
2022-08-25T02:49:58.876Z,22.27
2022-08-25T02:52:26.123Z,22.14
2022-08-25T02:54:53.342Z,21.98
2022-08-25T02:57:23.539Z,22.16
2022-08-25T02:59:51.320Z,22.03
2022-08-25T03:02:18.682Z,22.02
2022-08-25T03:04:52.154Z,22.04
2022-08-25T03:07:22.336Z,22.04
2022-08-25T03:09:52.735Z,21.92
2022-08-25T03:12:19.913Z,21.51
2022-08-25T03:14:54.217Z,21.61
2022-08-25T03:17:21.556Z,21.91
2022-08-25T03:19:52.203Z,21.79
2022-08-25T03:22:19.965Z,21.91
2022-08-25T03:24:47.278Z,21.91
2022-08-25T03:27:18.161Z,21.88
2022-08-25T03:29:45.506Z,21.88
2022-08-25T03:32:15.389Z,21.96
2022-08-25T03:34:45.705Z,21.67
2022-08-25T03:37:32.564Z,21.66
2022-08-25T03:40:00.321Z,21.62
2022-08-25T03:42:27.563Z,21.55
2022-08-25T03:44:55.091Z,21.36
2022-08-25T03:47:27.901Z,21.29
2022-08-25T03:49:55.706Z,21.26
2022-08-25T03:52:26.375Z,21.24
2022-08-25T03:54:57.054Z,21.13
2022-08-25T03:57:28.201Z,21.36
2022-08-25T03:59:59.299Z,21.37
2022-08-25T04:02:30.719Z,21.38
2022-08-25T04:05:01.380Z,21.45
2022-08-25T04:07:30.497Z,21.49
2022-08-25T04:10:08.456Z,21.33
2022-08-25T04:12:36.286Z,21.49
2022-08-25T04:15:04.866Z,21.60
2022-08-25T04:17:32.513Z,21.58
2022-08-25T04:20:01.482Z,21.63
2022-08-25T04:22:36.858Z,21.65
2022-08-25T04:25:05.269Z,21.64
2022-08-25T04:27:36.187Z,21.59
2022-08-25T04:30:07.543Z,21.90
2022-08-25T04:32:36.144Z,22.00
2022-08-25T04:35:04.187Z,21.92
2022-08-25T04:37:35.698Z,22.02
2022-08-25T04:40:07.486Z,21.75
2022-08-25T04:42:35.214Z,21.51
2022-08-25T04:45:05.741Z,21.73
2022-08-25T04:47:41.713Z,21.84
2022-08-25T04:50:09.158Z,21.71
2022-08-25T04:52:39.508Z,21.72
2022-08-25T04:55:06.933Z,21.67
2022-08-25T04:57:34.601Z,21.69
2022-08-25T05:00:05.269Z,21.69
2022-08-25T05:02:33.069Z,21.71
2022-08-25T05:05:00.834Z,21.88
2022-08-25T05:07:47.295Z,21.67
2022-08-25T05:10:15.838Z,22.01
2022-08-25T05:12:50.974Z,21.78
2022-08-25T05:15:26.228Z,22.18
2022-08-25T05:17:56.066Z,22.27
2022-08-25T05:20:24.006Z,22.31
2022-08-25T05:22:54.198Z,22.33
2022-08-25T05:25:24.376Z,22.39
2022-08-25T05:27:52.620Z,22.44
2022-08-25T05:30:20.307Z,22.40
2022-08-25T05:32:53.192Z,22.54
2022-08-25T05:35:26.928Z,22.86
2022-08-25T05:37:54.177Z,22.58
2022-08-25T05:40:24.295Z,22.42
2022-08-25T05:43:13.330Z,22.88
2022-08-25T05:45:41.751Z,22.57
2022-08-25T05:48:12.788Z,22.52
2022-08-25T05:50:42.813Z,22.81
2022-08-25T05:53:15.987Z,23.03
2022-08-25T05:55:44.559Z,23.03
2022-08-25T05:58:11.864Z,23.05
2022-08-25T06:00:41.541Z,23.05
2022-08-25T06:03:11.546Z,23.39
2022-08-25T06:05:39.582Z,23.65
2022-08-25T06:08:07.255Z,23.86
2022-08-25T06:10:34.965Z,23.90
2022-08-25T06:13:09.061Z,23.92
2022-08-25T06:15:38.695Z,24.12
2022-08-25T06:18:07.084Z,24.17
2022-08-25T06:20:37.404Z,24.47
2022-08-25T06:23:05.455Z,24.35
2022-08-25T06:25:39.658Z,24.40
2022-08-25T06:28:08.267Z,24.45
2022-08-25T06:30:38.699Z,24.43
2022-08-25T06:33:11.992Z,24.33
2022-08-25T06:35:45.087Z,24.46
2022-08-25T06:38:15.546Z,24.54
2022-08-25T06:40:49.397Z,24.59
2022-08-25T06:43:23.436Z,24.64
2022-08-25T06:45:53.945Z,24.54
2022-08-25T06:48:21.269Z,24.85
2022-08-25T06:50:48.941Z,24.75
2022-08-25T06:53:19.797Z,24.76
2022-08-25T06:55:57.331Z,25.19
2022-08-25T06:58:28.518Z,25.18
2022-08-25T07:01:20.078Z,25.10
2022-08-25T07:03:54.612Z,25.42
2022-08-25T07:06:23.200Z,25.49
2022-08-25T07:08:53.600Z,25.49
2022-08-25T07:11:26.467Z,25.59
2022-08-25T07:13:56.890Z,25.64
2022-08-25T07:16:27.458Z,25.59
2022-08-25T07:19:01.631Z,25.78
2022-08-25T07:21:35.622Z,25.91
2022-08-25T07:24:07.634Z,25.92
2022-08-25T07:26:39.629Z,25.96
2022-08-25T07:29:11.877Z,26.04
2022-08-25T07:31:39.684Z,26.14
2022-08-25T07:34:12.749Z,26.24
2022-08-25T07:36:44.110Z,26.28
2022-08-25T07:39:17.295Z,26.41
2022-08-25T07:41:51.972Z,26.47
2022-08-25T07:44:21.819Z,26.75
2022-08-25T07:46:51.856Z,26.62
2022-08-25T07:49:26.358Z,26.70
2022-08-25T07:52:06.912Z,26.78
2022-08-25T07:54:38.560Z,26.93
2022-08-25T07:57:08.611Z,27.10
2022-08-25T07:59:43.166Z,26.92
2022-08-25T08:02:19.083Z,26.96
2022-08-25T08:04:49.284Z,26.89
2022-08-25T08:07:19.257Z,26.94
2022-08-25T08:10:25.737Z,26.96
2022-08-25T08:12:55.486Z,27.10
2022-08-25T08:15:30.046Z,27.15
2022-08-25T08:17:59.384Z,27.28
2022-08-25T08:20:30.839Z,26.99
2022-08-25T08:23:18.967Z,26.88
2022-08-25T08:25:49.529Z,26.71
2022-08-25T08:28:20.029Z,26.63
2022-08-25T08:30:55.341Z,26.56
2022-08-25T08:33:24.250Z,26.50
2022-08-25T08:35:59.799Z,26.45
2022-08-25T08:38:36.107Z,26.40
2022-08-25T08:41:23.464Z,26.36
2022-08-25T08:46:52.657Z,26.45
2022-08-25T08:49:53.386Z,26.40
2022-08-25T08:52:24.909Z,26.32
2022-08-25T08:54:59.001Z,26.29
2022-08-25T08:57:38.221Z,26.25
2022-08-25T09:00:12.744Z,26.27
2022-08-25T09:03:03.210Z,26.24
2022-08-25T09:05:46.618Z,26.23
2022-08-25T09:08:20.381Z,26.36
2022-08-25T09:11:16.265Z,26.31
2022-08-25T09:14:05.114Z,26.26
2022-08-25T09:16:58.954Z,26.20
2022-08-25T09:19:44.618Z,26.17
2022-08-25T09:22:34.971Z,26.15
2022-08-25T09:25:21.989Z,26.13
2022-08-25T09:28:00.000Z,26.14
2022-08-25T09:30:47.740Z,26.10
2022-08-25T09:33:20.867Z,26.10
2022-08-25T09:35:50.082Z,25.98
2022-08-25T09:38:21.628Z,26.03
2022-08-25T09:40:54.474Z,26.10
2022-08-25T09:43:32.514Z,26.06
2022-08-25T09:46:08.997Z,25.98
2022-08-25T09:48:45.433Z,25.94
2022-08-25T09:51:29.185Z,25.91
2022-08-25T09:54:10.502Z,25.87
2022-08-25T09:56:52.062Z,25.84
2022-08-25T09:59:34.483Z,25.84
2022-08-25T10:02:30.074Z,25.86
2022-08-25T10:05:17.149Z,25.89
2022-08-25T10:07:55.797Z,25.91
2022-08-25T10:10:33.834Z,25.93
2022-08-25T10:13:17.070Z,25.93
2022-08-25T10:16:18.053Z,25.92
2022-08-25T10:19:07.850Z,25.94
2022-08-25T10:21:37.594Z,25.94
2022-08-25T10:24:15.229Z,25.96
2022-08-25T10:26:46.035Z,25.96
2022-08-25T10:29:32.509Z,25.91
2022-08-25T10:32:10.254Z,25.92
2022-08-25T10:34:45.309Z,25.90
2022-08-25T10:37:27.615Z,25.93
2022-08-25T10:40:00.403Z,25.97
2022-08-25T10:42:34.145Z,26.20
2022-08-25T10:45:21.765Z,26.23
2022-08-25T10:48:07.298Z,26.27
2022-08-25T10:50:38.098Z,26.34
2022-08-25T10:53:09.090Z,26.46
2022-08-25T10:55:59.921Z,26.48
2022-08-25T10:58:36.676Z,26.55
2022-08-25T11:01:11.519Z,26.56
2022-08-25T11:03:42.421Z,26.56
2022-08-25T11:06:41.779Z,26.64
2022-08-25T11:09:28.663Z,26.67
2022-08-25T11:12:16.175Z,26.94
2022-08-25T11:14:55.683Z,27.33
2022-08-25T11:17:38.471Z,27.39
2022-08-25T11:20:16.323Z,27.58
2022-08-25T11:22:52.212Z,27.79
2022-08-25T11:25:24.927Z,27.85
2022-08-25T11:28:07.225Z,27.86
2022-08-25T11:30:41.558Z,28.14
2022-08-25T11:33:13.703Z,28.14
2022-08-25T11:35:50.552Z,28.24
2022-08-25T11:38:44.718Z,28.10
2022-08-25T11:41:15.358Z,28.12
2022-08-25T11:43:53.725Z,28.25
2022-08-25T11:46:27.824Z,28.37
2022-08-25T11:48:58.778Z,28.51
2022-08-25T11:51:45.485Z,28.57
2022-08-25T11:54:24.643Z,28.53
2022-08-25T11:57:00.296Z,28.57
2022-08-25T11:59:47.694Z,28.57
2022-08-25T12:02:35.902Z,28.56
2022-08-25T12:05:32.237Z,28.62
2022-08-25T12:08:07.485Z,28.64
2022-08-25T12:10:53.613Z,28.66
2022-08-25T12:13:26.742Z,28.72
2022-08-25T12:15:57.129Z,28.77
2022-08-25T12:18:27.216Z,28.78
2022-08-25T12:20:55.343Z,28.78
2022-08-25T12:23:29.943Z,28.85
2022-08-25T12:26:05.099Z,28.96
2022-08-25T12:28:44.945Z,29.07
2022-08-25T12:31:21.387Z,29.26
2022-08-25T12:33:52.213Z,29.25
2022-08-25T12:36:30.672Z,29.31
2022-08-25T12:39:27.660Z,29.48
2022-08-25T12:41:59.936Z,29.47
2022-08-25T12:44:48.615Z,29.42
2022-08-25T12:47:23.493Z,29.29
2022-08-25T12:50:11.297Z,29.09
2022-08-25T12:52:46.055Z,28.83
2022-08-25T12:55:14.881Z,28.65
2022-08-25T12:58:00.693Z,28.68
2022-08-25T13:00:29.775Z,28.88
2022-08-25T13:03:05.402Z,28.93
2022-08-25T13:05:52.472Z,29.13
2022-08-25T13:08:33.809Z,29.30
2022-08-25T13:11:04.340Z,29.31
2022-08-25T13:13:51.427Z,29.31
2022-08-25T13:16:28.412Z,29.36
2022-08-25T13:18:57.439Z,29.37
2022-08-25T13:21:35.603Z,29.39
2022-08-25T13:24:40.404Z,29.41
2022-08-25T13:27:13.047Z,29.31
2022-08-25T13:29:58.760Z,29.32
2022-08-25T13:32:36.421Z,29.23
2022-08-25T13:35:14.290Z,29.33
2022-08-25T13:37:41.715Z,29.30
2022-08-25T13:40:25.901Z,29.25
2022-08-25T13:42:59.052Z,29.43
2022-08-25T13:45:34.098Z,29.29
2022-08-25T13:48:22.969Z,29.28
2022-08-25T13:51:10.943Z,29.37
2022-08-25T13:53:48.413Z,29.48
2022-08-25T13:56:31.150Z,29.38
2022-08-25T13:59:09.991Z,29.29
2022-08-25T14:01:49.498Z,29.34
2022-08-25T14:04:26.652Z,29.35
2022-08-25T14:07:12.274Z,29.36
2022-08-25T14:09:49.801Z,29.38
2022-08-25T14:12:34.260Z,29.43
2022-08-25T14:15:22.259Z,29.40
2022-08-25T14:18:14.900Z,29.39
2022-08-25T14:20:54.038Z,29.38
2022-08-25T14:23:23.396Z,29.28
2022-08-25T14:25:56.549Z,29.34
2022-08-25T14:28:30.079Z,29.33
2022-08-25T14:31:00.755Z,29.35
2022-08-25T14:33:37.041Z,29.29
2022-08-25T14:36:05.580Z,29.19
2022-08-25T14:38:33.022Z,29.15
2022-08-25T14:41:03.478Z,29.14
2022-08-25T14:43:32.414Z,29.30
2022-08-25T14:46:01.001Z,29.23
2022-08-25T14:48:35.495Z,29.19
2022-08-25T14:51:05.887Z,29.17
2022-08-25T14:53:40.128Z,29.11
2022-08-25T14:56:10.975Z,29.29
2022-08-25T14:58:48.339Z,29.32
2022-08-25T15:01:29.289Z,29.23
2022-08-25T15:04:03.874Z,29.19
2022-08-25T15:06:37.132Z,29.17
2022-08-25T15:09:07.211Z,29.18
2022-08-25T15:11:41.625Z,29.14
2022-08-25T15:14:10.662Z,29.07
2022-08-25T15:16:51.176Z,29.02
2022-08-25T15:19:19.842Z,29.14
2022-08-25T15:21:51.246Z,29.11
2022-08-25T15:24:19.999Z,29.03
2022-08-25T15:29:22.961Z,28.91
2022-08-25T15:31:53.564Z,28.90
2022-08-25T15:34:23.932Z,29.02
2022-08-25T15:37:05.838Z,28.89
2022-08-25T15:39:36.679Z,28.81
2022-08-25T15:42:10.652Z,28.71
2022-08-25T15:44:39.682Z,28.61
2022-08-25T15:47:12.621Z,28.65
2022-08-25T15:49:42.987Z,28.68
2022-08-25T15:52:10.523Z,28.74
2022-08-25T15:54:40.802Z,28.76
2022-08-25T15:57:24.389Z,28.60
2022-08-25T15:59:57.608Z,28.57
2022-08-25T16:02:25.448Z,28.60
2022-08-25T16:04:55.398Z,28.54
2022-08-25T16:07:24.300Z,28.54
2022-08-25T16:09:58.236Z,28.68
2022-08-25T16:12:26.914Z,28.71
2022-08-25T16:15:00.143Z,28.77
2022-08-25T16:17:30.373Z,28.68
2022-08-25T16:20:07.540Z,28.65
2022-08-25T16:22:41.562Z,28.61
2022-08-25T16:25:11.709Z,28.67
2022-08-25T16:27:45.706Z,28.70
2022-08-25T16:30:17.704Z,28.61
2022-08-25T16:32:48.129Z,28.40
2022-08-25T16:35:24.213Z,28.28
2022-08-25T16:37:51.686Z,28.17
2022-08-25T16:40:22.999Z,28.06
2022-08-25T16:42:57.163Z,27.95
2022-08-25T16:45:31.144Z,27.89
2022-08-25T16:48:03.948Z,27.79
2022-08-25T16:50:34.768Z,27.76
2022-08-25T16:53:02.112Z,27.62
2022-08-25T16:55:38.752Z,27.53
2022-08-25T16:58:09.639Z,27.50
2022-08-25T17:00:41.643Z,27.42
2022-08-25T17:03:12.209Z,27.33
2022-08-25T17:05:43.201Z,27.29
2022-08-25T17:08:14.037Z,27.25
2022-08-25T17:10:42.804Z,27.42
2022-08-25T17:13:13.917Z,27.28
2022-08-25T17:15:49.066Z,27.30
2022-08-25T17:18:19.960Z,27.22
2022-08-25T17:21:00.832Z,27.11
2022-08-25T17:23:31.978Z,27.18
2022-08-25T17:26:02.471Z,27.04
2022-08-25T17:28:33.260Z,27.02
2022-08-25T17:31:04.913Z,27.03
2022-08-25T17:33:35.913Z,26.87
2022-08-25T17:36:15.286Z,26.64
2022-08-25T17:38:53.236Z,26.49
2022-08-25T17:41:22.949Z,26.48
2022-08-25T17:43:57.791Z,26.36
2022-08-25T17:46:27.186Z,26.28
2022-08-25T17:48:54.472Z,26.19
2022-08-25T17:51:25.081Z,26.12
2022-08-25T17:53:56.613Z,26.11
2022-08-25T17:56:27.859Z,26.10
2022-08-25T17:58:56.169Z,26.04
2022-08-25T18:01:27.826Z,26.07
2022-08-25T18:03:56.092Z,26.07
2022-08-25T18:06:28.119Z,26.09
2022-08-25T18:08:59.990Z,25.97
2022-08-25T18:11:34.678Z,25.98
2022-08-25T18:14:05.359Z,26.03
2022-08-25T18:16:32.857Z,25.96
2022-08-25T18:19:01.933Z,25.92
2022-08-25T18:21:31.616Z,25.81
2022-08-25T18:23:59.145Z,25.75
2022-08-25T18:26:33.507Z,25.75
2022-08-25T18:29:01.371Z,25.74
2022-08-25T18:31:29.732Z,25.60
2022-08-25T18:34:01.112Z,25.47
2022-08-25T18:36:32.810Z,25.47
2022-08-25T18:39:13.680Z,25.50
2022-08-25T18:41:41.901Z,25.38
2022-08-25T18:44:12.926Z,25.31
2022-08-25T18:46:52.117Z,25.46
2022-08-25T18:49:21.543Z,25.38
2022-08-25T18:52:00.920Z,25.41
2022-08-25T18:54:28.315Z,25.34
2022-08-25T18:56:58.358Z,25.40
2022-08-25T18:59:29.121Z,25.39
2022-08-25T19:02:03.239Z,25.40
2022-08-25T19:04:33.564Z,25.43
2022-08-25T19:07:01.658Z,25.52
2022-08-25T19:09:29.455Z,25.57
2022-08-25T19:11:59.167Z,25.43
2022-08-25T19:14:31.068Z,25.38
2022-08-25T19:16:59.029Z,25.37
2022-08-25T19:19:27.038Z,25.35
2022-08-25T19:21:54.490Z,25.34
2022-08-25T19:24:22.311Z,25.32
2022-08-25T19:26:59.201Z,25.35
2022-08-25T19:29:30.818Z,25.41
2022-08-25T19:32:03.219Z,25.44
2022-08-25T19:37:25.612Z,25.43
2022-08-25T19:40:05.131Z,25.29
2022-08-25T19:45:21.935Z,25.18
2022-08-25T19:47:59.643Z,25.11
2022-08-25T19:53:26.105Z,25.20
2022-08-25T19:55:55.668Z,25.19
2022-08-25T19:58:26.859Z,25.26
2022-08-25T20:00:54.306Z,25.20
2022-08-25T20:03:22.030Z,25.11
2022-08-25T20:05:53.223Z,25.24
2022-08-25T20:08:28.133Z,25.02
2022-08-25T20:10:57.722Z,25.05
2022-08-25T20:13:27.867Z,24.93
2022-08-25T20:15:58.857Z,24.99
2022-08-25T20:18:26.320Z,24.87
2022-08-25T20:20:53.792Z,24.98
2022-08-25T20:23:22.777Z,24.96
2022-08-25T20:25:50.498Z,24.98
2022-08-25T20:28:18.957Z,24.85
2022-08-25T20:30:46.528Z,24.86
2022-08-25T20:33:13.955Z,24.87
2022-08-25T20:35:50.608Z,25.00
2022-08-25T20:38:26.297Z,24.54
2022-08-25T20:40:53.514Z,24.35
2022-08-25T20:43:20.943Z,24.30
2022-08-25T20:45:48.493Z,24.16
2022-08-25T20:48:22.763Z,24.04
2022-08-25T20:50:57.414Z,24.02
2022-08-25T20:53:25.643Z,24.06
2022-08-25T20:55:53.385Z,23.97
2022-08-25T20:58:23.712Z,23.86
2022-08-25T21:00:59.796Z,23.87
2022-08-25T21:03:27.062Z,23.76
2022-08-25T21:06:01.377Z,23.84
2022-08-25T21:08:31.110Z,23.93
2022-08-25T21:10:58.548Z,24.01
2022-08-25T21:13:27.550Z,24.19
2022-08-25T21:16:03.966Z,24.22
2022-08-25T21:18:36.207Z,24.26
2022-08-25T21:21:08.556Z,24.28
2022-08-25T21:23:37.136Z,24.32
2022-08-25T21:26:11.888Z,24.29
2022-08-25T21:28:39.120Z,24.34
2022-08-25T21:31:16.718Z,24.26
2022-08-25T21:33:44.818Z,24.16
2022-08-25T21:36:16.210Z,24.08
2022-08-25T21:38:43.546Z,23.96
2022-08-25T21:41:13.641Z,23.78
2022-08-25T21:43:41.466Z,23.71
2022-08-25T21:46:16.728Z,23.64
2022-08-25T21:48:47.914Z,23.53
2022-08-25T21:51:23.944Z,23.47
2022-08-25T21:53:58.118Z,23.36
2022-08-25T21:56:26.375Z,23.34
2022-08-25T21:59:00.507Z,23.14
2022-08-25T22:01:31.758Z,23.20
2022-08-25T22:04:06.485Z,23.08
2022-08-25T22:06:36.724Z,23.10
2022-08-25T22:09:07.593Z,23.08
2022-08-25T22:11:41.874Z,22.96
2022-08-25T22:14:10.635Z,23.07
2022-08-25T22:16:38.498Z,22.96
2022-08-25T22:19:07.082Z,23.06
2022-08-25T22:21:34.874Z,23.01
2022-08-25T22:24:02.225Z,23.04
2022-08-25T22:26:32.618Z,23.03
2022-08-25T22:29:00.337Z,23.12
2022-08-25T22:31:33.783Z,23.11
2022-08-25T22:34:04.363Z,23.04
2022-08-25T22:36:39.493Z,23.11
2022-08-25T22:39:07.978Z,23.11
2022-08-25T22:41:37.704Z,23.19
2022-08-25T22:44:12.185Z,23.26
2022-08-25T22:46:42.287Z,23.31
2022-08-25T22:49:15.851Z,23.31
2022-08-25T22:54:56.198Z,23.30
2022-08-25T22:57:38.362Z,23.21
2022-08-25T23:00:25.787Z,23.19
2022-08-25T23:02:56.842Z,23.16
2022-08-25T23:08:39.091Z,22.96
2022-08-25T23:11:20.576Z,22.95
2022-08-25T23:14:08.177Z,22.70
2022-08-25T23:19:42.486Z,22.74
2022-08-25T23:22:35.247Z,22.65
2022-08-25T23:25:12.765Z,22.64
2022-08-25T23:27:51.599Z,22.68
2022-08-25T23:30:38.474Z,22.61
2022-08-25T23:33:19.909Z,22.65
2022-08-25T23:36:10.493Z,22.61
2022-08-25T23:41:27.800Z,22.59
2022-08-25T23:44:09.177Z,22.63
2022-08-25T23:46:49.163Z,22.60
2022-08-25T23:52:18.467Z,22.48
2022-08-25T23:57:51.648Z,22.41
